createdAt,value
2023-03-06T05:00:35.107Z,99.37
2023-03-06T05:01:36.093Z,99.01
2023-03-06T05:02:36.101Z,98.74
2023-03-06T05:03:36.077Z,98.63
2023-03-06T05:04:36.069Z,98.63
2023-03-06T05:05:36.049Z,98.74
2023-03-06T05:06:36.072Z,99.05
2023-03-06T05:07:36.024Z,98.95
2023-03-06T05:08:36.036Z,98.95
2023-03-06T05:09:37.664Z,98.85
2023-03-06T05:10:35.984Z,99.05
2023-03-06T05:11:36.000Z,99.26
2023-03-06T05:12:35.978Z,99.37
2023-03-06T05:13:35.951Z,99.37
2023-03-06T05:14:35.986Z,99.16
2023-03-06T05:15:35.911Z,99.20
2023-03-06T05:16:36.141Z,99.37
2023-03-06T05:17:35.918Z,99.47
2023-03-06T05:18:35.869Z,99.57
2023-03-06T05:19:35.859Z,99.57
2023-03-06T05:20:35.869Z,99.62
2023-03-06T05:21:35.876Z,99.83
2023-03-06T05:22:35.828Z,99.73
2023-03-06T05:23:35.799Z,99.52
2023-03-06T05:24:35.819Z,99.73
2023-03-06T05:25:35.779Z,99.93
2023-03-06T05:26:35.827Z,99.93
2023-03-06T05:27:35.763Z,99.93
2023-03-06T05:28:35.761Z,99.93
2023-03-06T05:29:35.762Z,99.99
2023-03-06T05:30:35.746Z,99.83
2023-03-06T05:31:35.764Z,99.93
2023-03-06T05:32:36.071Z,99.83
2023-03-06T05:33:35.709Z,99.83
2023-03-06T05:34:35.688Z,99.93
2023-03-06T05:35:35.731Z,99.83
2023-03-06T05:36:35.676Z,99.73
2023-03-06T05:37:35.675Z,99.88
2023-03-06T05:38:35.676Z,99.99
2023-03-06T05:39:35.649Z,99.99
2023-03-06T05:40:35.695Z,99.99
2023-03-06T05:41:35.722Z,99.99
2023-03-06T05:42:35.630Z,99.99
2023-03-06T05:43:35.613Z,99.99
2023-03-06T05:44:35.621Z,99.99
2023-03-06T05:45:35.648Z,99.99
2023-03-06T05:46:35.598Z,99.99
2023-03-06T05:47:35.562Z,99.99
2023-03-06T05:48:35.607Z,99.99
2023-03-06T05:49:35.551Z,99.99
2023-03-06T05:50:35.547Z,99.99
2023-03-06T05:51:35.549Z,99.99
2023-03-06T05:52:35.516Z,99.99
2023-03-06T05:53:35.507Z,99.99
2023-03-06T05:54:35.484Z,99.99
2023-03-06T05:55:35.480Z,99.99
2023-03-06T05:56:35.470Z,99.99
2023-03-06T05:57:35.457Z,99.99
2023-03-06T05:58:35.510Z,99.99
2023-03-06T05:59:35.442Z,99.99
2023-03-06T06:00:36.093Z,99.99
2023-03-06T06:01:35.545Z,99.99
2023-03-06T06:02:35.487Z,99.99
2023-03-06T06:03:35.490Z,99.99
2023-03-06T06:04:35.395Z,99.99
2023-03-06T06:05:35.362Z,99.99
2023-03-06T06:06:35.469Z,99.99
2023-03-06T06:07:35.394Z,99.99
2023-03-06T06:08:35.406Z,99.99
2023-03-06T06:09:35.392Z,99.99
2023-03-06T06:10:35.398Z,99.99
2023-03-06T06:11:35.398Z,99.99
2023-03-06T06:12:35.482Z,99.99
2023-03-06T06:13:35.356Z,99.99
2023-03-06T06:14:35.318Z,99.99
2023-03-06T06:15:35.294Z,99.99
2023-03-06T06:16:35.310Z,99.99
2023-03-06T06:17:35.332Z,99.99
2023-03-06T06:18:35.244Z,99.99
2023-03-06T06:19:35.236Z,99.99
2023-03-06T06:20:35.292Z,99.99
2023-03-06T06:21:35.221Z,99.99
2023-03-06T06:22:35.262Z,99.99
2023-03-06T06:23:35.365Z,99.99
2023-03-06T06:24:35.252Z,99.99
2023-03-06T06:25:35.212Z,99.99
2023-03-06T06:26:35.273Z,99.99
2023-03-06T06:27:35.235Z,99.99
2023-03-06T06:28:35.142Z,99.99
2023-03-06T06:29:35.130Z,99.99
2023-03-06T06:30:35.134Z,99.99
2023-03-06T06:31:35.249Z,99.99
2023-03-06T06:32:35.131Z,99.99
2023-03-06T06:33:35.137Z,99.99
2023-03-06T06:34:35.105Z,99.99
2023-03-06T06:35:35.195Z,99.99
2023-03-06T06:36:35.077Z,99.99
2023-03-06T06:37:35.058Z,99.77
2023-03-06T06:38:35.161Z,99.66
2023-03-06T06:39:35.040Z,99.25
2023-03-06T06:40:35.020Z,99.46
2023-03-06T06:41:54.930Z,99.56
2023-03-06T06:42:39.681Z,99.82
2023-03-06T06:43:35.289Z,99.66
2023-03-06T06:44:34.987Z,99.82
2023-03-06T06:45:34.987Z,99.98
2023-03-06T06:47:21.367Z,99.92
2023-03-06T06:47:35.044Z,99.98
2023-03-06T06:48:35.662Z,99.88
2023-03-06T06:49:35.047Z,99.77
2023-03-06T06:50:34.918Z,99.92
2023-03-06T06:51:34.959Z,99.98
2023-03-06T06:52:34.915Z,99.99
2023-03-06T06:53:34.954Z,99.99
2023-03-06T06:54:35.004Z,99.99
2023-03-06T06:55:34.860Z,99.99
2023-03-06T06:56:34.867Z,99.99
2023-03-06T06:57:34.876Z,99.99
2023-03-06T06:58:35.141Z,99.99
2023-03-06T06:59:34.883Z,99.99
2023-03-06T07:00:34.826Z,99.98
2023-03-06T07:01:34.961Z,99.98
2023-03-06T07:02:34.790Z,99.99
2023-03-06T07:03:34.783Z,99.99
2023-03-06T07:04:34.763Z,99.99
2023-03-06T07:05:34.779Z,99.99
2023-03-06T07:06:34.733Z,99.99
2023-03-06T07:07:34.764Z,99.99
2023-03-06T07:08:34.736Z,99.99
2023-03-06T07:09:34.743Z,99.99
2023-03-06T07:10:34.697Z,99.99
2023-03-06T07:11:34.750Z,99.99
2023-03-06T07:12:34.695Z,99.99
2023-03-06T07:13:34.672Z,99.99
2023-03-06T07:14:34.689Z,99.99
2023-03-06T07:15:34.724Z,99.99
2023-03-06T07:16:34.633Z,99.99
2023-03-06T07:17:34.902Z,99.99
2023-03-06T07:18:34.632Z,99.99
2023-03-06T07:19:34.667Z,99.99
2023-03-06T07:20:34.584Z,99.99
2023-03-06T07:21:34.611Z,99.88
2023-03-06T07:22:49.906Z,99.77
2023-03-06T07:23:34.577Z,99.77
2023-03-06T07:24:34.657Z,99.46
2023-03-06T07:25:34.576Z,99.66
2023-03-06T07:26:35.005Z,99.98
2023-03-06T07:27:34.585Z,99.99
2023-03-06T07:28:49.763Z,99.98
2023-03-06T07:29:34.564Z,99.56
2023-03-06T07:30:34.528Z,99.66
2023-03-06T07:31:34.518Z,99.66
2023-03-06T07:32:34.522Z,99.88
2023-03-06T07:33:34.524Z,99.99
2023-03-06T07:34:34.449Z,99.46
2023-03-06T07:35:34.511Z,99.35
2023-03-06T07:36:34.462Z,99.35
2023-03-06T07:37:34.448Z,99.04
2023-03-06T07:38:34.420Z,99.46
2023-03-06T07:39:34.418Z,99.46
2023-03-06T07:40:34.428Z,99.66
2023-03-06T07:41:34.458Z,99.62
2023-03-06T07:42:34.384Z,99.35
2023-03-06T07:43:34.407Z,98.72
2023-03-06T07:44:34.373Z,98.89
2023-03-06T07:45:34.360Z,98.89
2023-03-06T07:46:34.368Z,98.89
2023-03-06T07:47:34.311Z,98.99
2023-03-06T07:48:34.285Z,98.99
2023-03-06T07:49:34.304Z,98.79
2023-03-06T07:50:34.621Z,98.47
2023-03-06T07:51:34.293Z,98.16
2023-03-06T07:52:34.247Z,97.85
2023-03-06T07:53:34.256Z,98.16
2023-03-06T07:54:34.256Z,98.16
2023-03-06T07:55:34.243Z,98.01
2023-03-06T07:56:34.234Z,97.01
2023-03-06T07:57:34.225Z,96.91
2023-03-06T07:58:34.199Z,97.11
2023-03-06T07:59:34.183Z,96.76
2023-03-06T08:00:34.171Z,96.97
2023-03-06T08:01:34.189Z,96.97
2023-03-06T08:02:34.216Z,97.28
2023-03-06T08:03:34.322Z,96.76
2023-03-06T08:04:34.121Z,96.03
2023-03-06T08:05:34.119Z,96.03
2023-03-06T08:06:34.129Z,96.44
2023-03-06T08:07:34.108Z,96.44
2023-03-06T08:08:34.101Z,96.17
2023-03-06T08:09:34.079Z,96.17
2023-03-06T08:10:34.058Z,96.28
2023-03-06T08:11:34.068Z,96.23
2023-03-06T08:12:34.065Z,96.49
2023-03-06T08:13:35.024Z,96.59
2023-03-06T08:14:34.038Z,96.23
2023-03-06T08:15:34.047Z,95.86
2023-03-06T08:16:34.115Z,96.38
2023-03-06T08:17:33.986Z,96.38
2023-03-06T08:18:34.035Z,96.17
2023-03-06T08:19:33.984Z,96.38
2023-03-06T08:20:34.016Z,96.49
2023-03-06T08:21:34.104Z,96.80
2023-03-06T08:22:33.963Z,95.76
2023-03-06T08:23:33.975Z,95.59
2023-03-06T08:24:33.955Z,96.11
2023-03-06T08:25:33.919Z,96.84
2023-03-06T08:26:34.062Z,96.53
2023-03-06T08:27:33.926Z,95.70
2023-03-06T08:28:33.959Z,95.90
2023-03-06T08:29:33.881Z,96.43
2023-03-06T08:30:33.908Z,96.64
2023-03-06T08:31:33.971Z,96.22
2023-03-06T08:32:33.915Z,96.33
2023-03-06T08:33:33.875Z,95.90
2023-03-06T08:34:33.817Z,95.70
2023-03-06T08:35:33.847Z,94.86
2023-03-06T08:36:33.794Z,94.40
2023-03-06T08:37:33.915Z,94.13
2023-03-06T08:38:33.759Z,94.96
2023-03-06T08:39:34.021Z,95.17
2023-03-06T08:40:33.756Z,94.13
2023-03-06T08:41:33.759Z,94.34
2023-03-06T08:42:33.750Z,95.07
2023-03-06T08:43:33.728Z,95.38
2023-03-06T08:44:33.761Z,95.70
2023-03-06T08:45:33.724Z,95.80
2023-03-06T08:46:33.685Z,96.17
2023-03-06T08:47:33.668Z,95.49
2023-03-06T08:48:33.669Z,95.70
2023-03-06T08:49:33.729Z,95.90
2023-03-06T08:50:33.669Z,96.33
2023-03-06T08:51:33.651Z,96.64
2023-03-06T08:52:33.616Z,96.78
2023-03-06T08:53:43.194Z,96.33
2023-03-06T08:54:33.650Z,96.89
2023-03-06T08:55:33.606Z,97.05
2023-03-06T08:56:33.596Z,96.84
2023-03-06T08:57:33.581Z,97.16
2023-03-06T08:58:33.610Z,97.16
2023-03-06T08:59:33.545Z,97.16
2023-03-06T09:00:34.354Z,97.31
2023-03-06T09:01:33.552Z,97.72
2023-03-06T09:02:33.617Z,97.94
2023-03-06T09:03:33.665Z,98.14
2023-03-06T09:04:33.577Z,97.10
2023-03-06T09:05:33.526Z,97.31
2023-03-06T09:06:33.520Z,97.72
2023-03-06T09:07:33.529Z,97.83
2023-03-06T09:08:33.926Z,98.25
2023-03-06T09:09:33.475Z,98.46
2023-03-06T09:10:33.533Z,98.46
2023-03-06T09:11:33.491Z,98.46
2023-03-06T09:12:47.396Z,98.67
2023-03-06T09:13:33.440Z,98.14
2023-03-06T09:14:33.450Z,98.14
2023-03-06T09:15:33.667Z,97.72
2023-03-06T09:16:33.443Z,97.72
2023-03-06T09:17:33.448Z,97.41
2023-03-06T09:18:33.380Z,97.31
2023-03-06T09:19:33.385Z,96.37
2023-03-06T09:20:33.341Z,96.37
2023-03-06T09:21:33.316Z,96.37
2023-03-06T09:22:33.312Z,96.41
2023-03-06T09:23:33.349Z,96.72
2023-03-06T09:24:33.336Z,97.10
2023-03-06T09:25:33.308Z,97.41
2023-03-06T09:26:45.125Z,97.83
2023-03-06T09:27:33.331Z,97.83
2023-03-06T09:28:33.501Z,97.72
2023-03-06T09:29:33.305Z,97.94
2023-03-06T09:30:33.556Z,97.41
2023-03-06T09:31:33.273Z,97.45
2023-03-06T09:32:33.312Z,97.72
2023-03-06T09:33:33.300Z,97.52
2023-03-06T09:34:33.220Z,97.35
2023-03-06T09:35:33.276Z,97.04
2023-03-06T09:36:42.746Z,96.62
2023-03-06T09:37:33.169Z,96.89
2023-03-06T09:38:33.178Z,96.83
2023-03-06T09:39:33.294Z,97.00
2023-03-06T09:40:33.146Z,96.89
2023-03-06T09:41:33.137Z,97.00
2023-03-06T09:42:33.110Z,97.20
2023-03-06T09:43:33.093Z,96.16
2023-03-06T09:44:33.083Z,95.53
2023-03-06T09:45:33.114Z,95.53
2023-03-06T09:46:33.073Z,96.05
2023-03-06T09:47:33.058Z,95.01
2023-03-06T09:48:33.028Z,94.49
2023-03-06T09:49:33.079Z,95.21
2023-03-06T09:50:33.071Z,95.59
2023-03-06T09:51:33.064Z,95.70
2023-03-06T09:52:33.054Z,95.28
2023-03-06T09:53:33.038Z,95.38
2023-03-06T09:54:32.970Z,94.55
2023-03-06T09:55:32.986Z,94.34
2023-03-06T09:56:33.006Z,94.65
2023-03-06T09:57:32.943Z,94.59
2023-03-06T09:58:33.132Z,95.21
2023-03-06T09:59:32.976Z,95.70
2023-03-06T10:00:32.967Z,95.17
2023-03-06T10:01:32.914Z,94.76
2023-03-06T10:02:33.027Z,94.55
2023-03-06T10:03:32.993Z,93.61
2023-03-06T10:04:32.938Z,93.50
2023-03-06T10:05:32.867Z,93.82
2023-03-06T10:06:32.864Z,93.82
2023-03-06T10:07:32.927Z,94.23
2023-03-06T10:08:32.957Z,94.65
2023-03-06T10:09:32.938Z,95.59
2023-03-06T10:10:32.837Z,95.17
2023-03-06T10:11:32.832Z,94.44
2023-03-06T10:12:32.858Z,93.82
2023-03-06T10:13:32.842Z,94.40
2023-03-06T10:14:32.841Z,94.82
2023-03-06T10:15:32.903Z,93.88
2023-03-06T10:16:32.836Z,93.35
2023-03-06T10:17:32.825Z,93.08
2023-03-06T10:18:32.725Z,91.10
2023-03-06T10:19:33.188Z,92.46
2023-03-06T10:20:32.765Z,92.66
2023-03-06T10:21:32.757Z,92.77
2023-03-06T10:22:32.716Z,92.77
2023-03-06T10:23:32.683Z,91.94
2023-03-06T10:24:32.713Z,92.66
2023-03-06T10:25:32.804Z,93.40
2023-03-06T10:26:32.934Z,93.88
2023-03-06T10:27:32.638Z,93.77
2023-03-06T10:28:35.119Z,92.88
2023-03-06T10:29:32.670Z,93.50
2023-03-06T10:30:32.676Z,94.13
2023-03-06T10:31:32.631Z,94.19
2023-03-06T10:32:46.059Z,93.67
2023-03-06T10:33:32.573Z,91.83
2023-03-06T10:34:32.629Z,91.41
2023-03-06T10:35:32.685Z,91.20
2023-03-06T10:36:32.568Z,91.20
2023-03-06T10:37:32.694Z,91.41
2023-03-06T10:38:32.528Z,91.20
2023-03-06T10:39:32.500Z,91.94
2023-03-06T10:40:32.526Z,90.68
2023-03-06T10:41:32.494Z,91.00
2023-03-06T10:42:32.572Z,91.10
2023-03-06T10:43:34.062Z,91.41
2023-03-06T10:44:32.474Z,91.83
2023-03-06T10:45:47.280Z,91.41
2023-03-06T10:46:32.537Z,91.62
2023-03-06T10:47:32.425Z,90.75
2023-03-06T10:48:32.469Z,90.22
2023-03-06T10:49:32.418Z,90.16
2023-03-06T10:50:32.407Z,89.84
2023-03-06T10:51:32.407Z,90.26
2023-03-06T10:52:32.384Z,91.00
2023-03-06T10:53:32.373Z,90.37
2023-03-06T10:54:32.382Z,91.20
2023-03-06T10:55:32.349Z,91.52
2023-03-06T10:56:32.643Z,91.89
2023-03-06T10:57:32.354Z,91.79
2023-03-06T10:58:32.416Z,91.27
2023-03-06T10:59:32.280Z,91.89
2023-03-06T11:00:32.289Z,91.89
2023-03-06T11:01:32.376Z,91.58
2023-03-06T11:02:32.269Z,92.31
2023-03-06T11:03:32.262Z,92.21
2023-03-06T11:04:32.283Z,92.10
2023-03-06T11:05:32.219Z,92.41
2023-03-06T11:06:32.228Z,91.06
2023-03-06T11:07:32.273Z,90.95
2023-03-06T11:08:33.273Z,92.21
2023-03-06T11:09:32.185Z,92.31
2023-03-06T11:10:32.196Z,92.21
2023-03-06T11:11:37.826Z,91.89
2023-03-06T11:12:32.173Z,91.16
2023-03-06T11:13:32.187Z,90.60
2023-03-06T11:14:32.148Z,90.70
2023-03-06T11:15:32.153Z,90.33
2023-03-06T11:16:32.208Z,90.01
2023-03-06T11:17:32.266Z,90.64
2023-03-06T11:18:32.104Z,90.64
2023-03-06T11:19:32.109Z,91.37
2023-03-06T11:20:48.412Z,90.75
2023-03-06T11:21:32.066Z,90.01
2023-03-06T11:22:32.068Z,90.43
2023-03-06T11:23:32.070Z,90.22
2023-03-06T11:24:32.044Z,89.28
2023-03-06T11:25:32.029Z,89.81
2023-03-06T11:26:32.012Z,89.28
2023-03-06T11:27:31.996Z,89.59
2023-03-06T11:28:32.116Z,90.33
2023-03-06T11:29:34.538Z,89.49
2023-03-06T11:30:32.013Z,88.03
2023-03-06T11:31:31.998Z,88.24
2023-03-06T11:32:32.163Z,88.55
2023-03-06T11:33:32.084Z,87.71
2023-03-06T11:34:32.008Z,87.51
2023-03-06T11:35:32.083Z,88.76
2023-03-06T11:36:32.065Z,88.87
2023-03-06T11:37:32.028Z,88.41
2023-03-06T11:38:31.950Z,88.13
2023-03-06T11:39:31.936Z,85.52
2023-03-06T11:40:31.924Z,86.67
2023-03-06T11:41:31.857Z,86.77
2023-03-06T11:42:31.877Z,86.36
2023-03-06T11:43:31.853Z,85.21
2023-03-06T11:44:31.861Z,85.00
2023-03-06T11:45:31.830Z,83.64
2023-03-06T11:46:31.878Z,82.81
2023-03-06T11:47:31.775Z,82.50
2023-03-06T11:48:31.776Z,83.01
2023-03-06T11:49:31.804Z,83.95
2023-03-06T11:50:31.841Z,83.75
2023-03-06T11:51:31.726Z,82.98
2023-03-06T11:52:31.808Z,83.61
2023-03-06T11:53:31.723Z,84.65
2023-03-06T11:54:31.741Z,84.75
2023-03-06T11:55:31.752Z,83.92
2023-03-06T11:56:31.997Z,83.04
2023-03-06T11:57:31.806Z,82.84
2023-03-06T11:58:31.678Z,83.18
2023-03-06T11:59:31.755Z,83.18
2023-03-06T12:00:32.684Z,82.98
2023-03-06T12:01:31.646Z,83.61
2023-03-06T12:02:31.644Z,84.23
2023-03-06T12:03:31.695Z,83.98
2023-03-06T12:04:31.643Z,83.36
2023-03-06T12:05:31.711Z,83.57
2023-03-06T12:06:31.604Z,83.25
2023-03-06T12:07:31.660Z,82.53
2023-03-06T12:08:31.592Z,82.84
2023-03-06T12:09:31.584Z,82.70
2023-03-06T12:10:31.554Z,82.38
2023-03-06T12:11:33.155Z,81.86
2023-03-06T12:12:31.552Z,82.73
2023-03-06T12:13:31.535Z,82.70
2023-03-06T12:14:31.509Z,82.28
2023-03-06T12:15:31.490Z,82.17
2023-03-06T12:16:31.551Z,81.02
2023-03-06T12:17:31.469Z,82.07
2023-03-06T12:18:31.464Z,81.55
2023-03-06T12:19:31.453Z,81.72
2023-03-06T12:20:31.480Z,81.20
2023-03-06T12:21:31.459Z,82.24
2023-03-06T12:22:31.476Z,82.34
2023-03-06T12:23:31.425Z,82.65
2023-03-06T12:24:32.229Z,82.34
2023-03-06T12:25:31.417Z,82.14
2023-03-06T12:26:31.601Z,83.39
2023-03-06T12:27:31.414Z,82.51
2023-03-06T12:28:31.366Z,81.47
2023-03-06T12:29:31.330Z,82.62
2023-03-06T12:30:31.374Z,82.72
2023-03-06T12:31:31.391Z,82.62
2023-03-06T12:32:31.368Z,82.72
2023-03-06T12:33:31.347Z,82.41
2023-03-06T12:34:31.283Z,82.51
2023-03-06T12:35:31.398Z,82.10
2023-03-06T12:36:31.270Z,81.47
2023-03-06T12:37:31.294Z,81.16
2023-03-06T12:38:31.279Z,80.85
2023-03-06T12:39:31.256Z,81.12
2023-03-06T12:40:31.283Z,80.81
2023-03-06T12:41:31.275Z,80.02
2023-03-06T12:42:31.724Z,79.60
2023-03-06T12:43:31.202Z,80.54
2023-03-06T12:44:31.212Z,80.95
2023-03-06T12:45:31.165Z,80.71
2023-03-06T12:46:31.166Z,80.29
2023-03-06T12:47:31.181Z,79.11
2023-03-06T12:48:31.186Z,79.63
2023-03-06T12:49:32.925Z,77.09
2023-03-06T12:50:31.165Z,77.51
2023-03-06T12:51:31.112Z,78.10
2023-03-06T12:52:31.107Z,76.51
2023-03-06T12:53:31.116Z,75.57
2023-03-06T12:54:31.085Z,74.53
2023-03-06T12:55:31.090Z,74.74
2023-03-06T12:56:31.078Z,74.53
2023-03-06T12:57:31.053Z,73.91
2023-03-06T12:58:31.067Z,73.49
2023-03-06T12:59:31.054Z,73.60
2023-03-06T13:00:31.037Z,74.01
2023-03-06T13:01:31.026Z,74.53
2023-03-06T13:02:31.720Z,75.54
2023-03-06T13:03:31.017Z,74.98
2023-03-06T13:04:32.095Z,72.73
2023-03-06T13:05:30.982Z,73.87
2023-03-06T13:06:34.148Z,73.28
2023-03-06T13:07:30.945Z,73.80
2023-03-06T13:08:30.951Z,74.70
2023-03-06T13:09:31.029Z,73.14
2023-03-06T13:10:30.923Z,73.46
2023-03-06T13:11:30.916Z,73.49
2023-03-06T13:12:30.985Z,73.60
2023-03-06T13:13:31.027Z,73.77
2023-03-06T13:14:31.223Z,72.52
2023-03-06T13:15:30.855Z,73.66
2023-03-06T13:16:30.861Z,74.29
2023-03-06T13:17:30.845Z,73.49
2023-03-06T13:18:30.848Z,73.80
2023-03-06T13:19:30.839Z,73.14
2023-03-06T13:20:30.797Z,71.86
2023-03-06T13:21:31.668Z,71.83
2023-03-06T13:22:30.841Z,70.46
2023-03-06T13:23:30.795Z,68.59
2023-03-06T13:24:30.826Z,68.49
2023-03-06T13:25:30.823Z,68.73
2023-03-06T13:26:30.739Z,69.21
2023-03-06T13:27:30.796Z,67.77
2023-03-06T13:28:30.747Z,68.15
2023-03-06T13:29:30.762Z,69.01
2023-03-06T13:30:30.868Z,69.59
2023-03-06T13:31:30.865Z,70.10
2023-03-06T13:32:30.719Z,70.25
2023-03-06T13:33:30.677Z,68.90
2023-03-06T13:34:30.680Z,68.70
2023-03-06T13:35:30.757Z,67.66
2023-03-06T13:36:30.639Z,68.65
2023-03-06T13:37:30.619Z,68.86
2023-03-06T13:38:30.620Z,70.42
2023-03-06T13:39:30.629Z,71.28
2023-03-06T13:40:30.609Z,71.42
2023-03-06T13:41:30.571Z,70.69
2023-03-06T13:42:30.605Z,70.45
2023-03-06T13:43:31.967Z,70.10
2023-03-06T13:44:30.593Z,68.55
2023-03-06T13:45:30.556Z,69.07
2023-03-06T13:46:30.574Z,68.93
2023-03-06T13:47:30.508Z,68.93
2023-03-06T13:48:43.576Z,68.44
2023-03-06T13:49:30.493Z,68.44
2023-03-06T13:50:30.500Z,65.93
2023-03-06T13:51:30.476Z,64.62
2023-03-06T13:52:30.474Z,63.29
2023-03-06T13:53:30.450Z,62.70
2023-03-06T13:54:30.462Z,65.56
2023-03-06T13:55:30.445Z,64.67
2023-03-06T13:56:30.460Z,64.43
2023-03-06T13:57:30.818Z,64.02
2023-03-06T13:58:30.383Z,65.32
2023-03-06T13:59:30.384Z,66.24
2023-03-06T14:00:30.383Z,68.07
2023-03-06T14:01:30.382Z,69.76
2023-03-06T14:02:30.391Z,71.14
2023-03-06T14:03:30.360Z,71.24
2023-03-06T14:04:30.325Z,71.34
2023-03-06T14:05:30.378Z,72.38
2023-03-06T14:06:30.340Z,71.24
2023-03-06T14:07:30.743Z,69.62
2023-03-06T14:08:31.093Z,69.62
2023-03-06T14:09:30.297Z,68.48
2023-03-06T14:10:30.288Z,68.41
2023-03-06T14:11:30.234Z,69.13
2023-03-06T14:12:30.895Z,69.21
2023-03-06T14:13:38.445Z,69.03
2023-03-06T14:14:30.290Z,69.34
2023-03-06T14:15:30.237Z,70.76
2023-03-06T14:16:37.604Z,70.31
2023-03-06T14:17:30.262Z,69.38
2023-03-06T14:18:30.189Z,69.07
2023-03-06T14:19:30.259Z,69.10
2023-03-06T14:20:30.204Z,68.69
2023-03-06T14:21:30.202Z,68.72
2023-03-06T14:22:30.248Z,68.59
2023-03-06T14:23:30.319Z,69.07
2023-03-06T14:24:30.105Z,68.24
2023-03-06T14:25:30.111Z,67.48
2023-03-06T14:26:30.122Z,68.10
2023-03-06T14:27:30.087Z,67.79
2023-03-06T14:28:30.088Z,67.61
2023-03-06T14:29:30.049Z,68.55
2023-03-06T14:30:30.026Z,68.79
2023-03-06T14:31:30.127Z,69.55
2023-03-06T14:32:30.136Z,69.86
2023-03-06T14:33:30.050Z,69.55
2023-03-06T14:34:30.047Z,70.62
2023-03-06T14:35:30.433Z,70.83
2023-03-06T14:36:30.003Z,71.07
2023-03-06T14:37:30.058Z,70.51
2023-03-06T14:38:29.993Z,70.83
2023-03-06T14:39:30.071Z,70.17
2023-03-06T14:40:30.000Z,69.89
2023-03-06T14:41:29.945Z,70.17
2023-03-06T14:42:29.934Z,69.24
2023-03-06T14:43:30.074Z,68.55
2023-03-06T14:44:30.696Z,66.11
2023-03-06T14:45:29.896Z,66.62
2023-03-06T14:46:29.874Z,65.07
2023-03-06T14:47:29.917Z,65.07
2023-03-06T14:48:29.953Z,64.76
2023-03-06T14:49:29.951Z,65.17
2023-03-06T14:50:29.877Z,63.97
2023-03-06T14:51:29.826Z,64.11
2023-03-06T14:52:30.010Z,64.94
2023-03-06T14:53:29.939Z,65.07
2023-03-06T14:54:29.831Z,66.00
2023-03-06T14:55:29.814Z,66.21
2023-03-06T14:56:29.809Z,66.03
2023-03-06T14:57:29.774Z,66.14
2023-03-06T14:58:29.759Z,66.47
2023-03-06T14:59:29.788Z,67.20
2023-03-06T15:00:29.815Z,68.59
2023-03-06T15:01:29.754Z,68.07
2023-03-06T15:02:29.826Z,68.79
2023-03-06T15:03:29.689Z,68.10
2023-03-06T15:04:29.685Z,68.62
2023-03-06T15:05:29.679Z,67.99
2023-03-06T15:06:29.887Z,67.27
2023-03-06T15:07:29.685Z,66.47
2023-03-06T15:08:29.635Z,67.50
2023-03-06T15:09:29.727Z,66.78
2023-03-06T15:10:29.607Z,67.33
2023-03-06T15:11:29.673Z,67.61
2023-03-06T15:12:29.645Z,66.22
2023-03-06T15:13:29.594Z,65.47
2023-03-06T15:14:29.566Z,64.54
2023-03-06T15:15:29.557Z,64.02
2023-03-06T15:16:30.396Z,64.02
2023-03-06T15:17:29.584Z,64.43
2023-03-06T15:18:29.524Z,64.02
2023-03-06T15:19:29.535Z,63.50
2023-03-06T15:20:29.503Z,62.67
2023-03-06T15:21:29.526Z,63.92
2023-03-06T15:22:29.500Z,65.78
2023-03-06T15:23:29.567Z,66.38
2023-03-06T15:24:29.464Z,65.28
2023-03-06T15:25:29.476Z,64.97
2023-03-06T15:26:29.646Z,64.82
2023-03-06T15:27:29.462Z,66.54
2023-03-06T15:28:29.432Z,67.47
2023-03-06T15:29:29.425Z,67.72
2023-03-06T15:30:29.432Z,67.30
2023-03-06T15:31:29.426Z,66.47
2023-03-06T15:32:29.498Z,66.38
2023-03-06T15:33:29.451Z,65.65
2023-03-06T15:34:29.367Z,65.31
2023-03-06T15:35:29.464Z,64.30
2023-03-06T15:36:29.374Z,64.58
2023-03-06T15:37:29.333Z,65.83
2023-03-06T15:38:29.341Z,64.89
2023-03-06T15:39:29.309Z,65.20
2023-03-06T15:40:29.289Z,65.31
2023-03-06T15:41:29.275Z,64.89
2023-03-06T15:42:29.300Z,65.44
2023-03-06T15:43:29.264Z,65.86
2023-03-06T15:44:29.273Z,65.86
2023-03-06T15:45:29.319Z,65.86
2023-03-06T15:46:29.224Z,66.38
2023-03-06T15:47:29.201Z,66.61
2023-03-06T15:48:29.213Z,66.61
2023-03-06T15:49:29.190Z,68.10
2023-03-06T15:50:29.347Z,68.20
2023-03-06T15:51:29.215Z,68.23
2023-03-06T15:52:29.266Z,68.54
2023-03-06T15:53:29.184Z,69.61
2023-03-06T15:54:29.915Z,69.09
2023-03-06T15:55:29.141Z,69.74
2023-03-06T15:56:29.251Z,70.06
2023-03-06T15:57:29.170Z,69.64
2023-03-06T15:58:29.115Z,70.48
2023-03-06T15:59:29.082Z,71.10
2023-03-06T16:00:29.118Z,70.79
2023-03-06T16:01:29.099Z,71.44
2023-03-06T16:02:29.065Z,71.55
2023-03-06T16:03:29.039Z,71.97
2023-03-06T16:04:29.091Z,71.86
2023-03-06T16:05:29.091Z,72.20
2023-03-06T16:06:29.023Z,72.83
2023-03-06T16:07:29.012Z,73.25
2023-03-06T16:08:28.995Z,73.35
2023-03-06T16:09:29.045Z,73.56
2023-03-06T16:10:28.964Z,73.46
2023-03-06T16:11:35.417Z,73.14
2023-03-06T16:12:29.000Z,73.11
2023-03-06T16:13:29.058Z,72.62
2023-03-06T16:14:28.947Z,72.93
2023-03-06T16:15:28.986Z,72.93
2023-03-06T16:16:28.961Z,73.25
2023-03-06T16:17:28.911Z,73.56
2023-03-06T16:18:28.930Z,73.46
2023-03-06T16:19:28.888Z,73.87
2023-03-06T16:20:28.900Z,73.87
2023-03-06T16:21:28.992Z,73.77
2023-03-06T16:22:28.987Z,73.66
2023-03-06T16:23:28.854Z,73.97
2023-03-06T16:24:28.876Z,73.69
2023-03-06T16:25:28.834Z,74.01
2023-03-06T16:26:28.975Z,74.11
2023-03-06T16:27:28.813Z,73.90
2023-03-06T16:28:28.858Z,74.01
2023-03-06T16:29:28.820Z,74.11
2023-03-06T16:30:28.953Z,74.63
2023-03-06T16:31:28.755Z,74.63
2023-03-06T16:32:28.946Z,74.43
2023-03-06T16:33:28.865Z,74.56
2023-03-06T16:34:28.719Z,74.77
2023-03-06T16:35:28.754Z,75.19
2023-03-06T16:36:28.680Z,75.29
2023-03-06T16:37:28.725Z,75.50
2023-03-06T16:38:28.683Z,75.81
2023-03-06T16:39:28.667Z,75.81
2023-03-06T16:40:28.648Z,76.33
2023-03-06T16:41:28.710Z,76.65
2023-03-06T16:42:28.629Z,76.54
2023-03-06T16:43:28.613Z,76.65
2023-03-06T16:44:28.610Z,76.89
2023-03-06T16:45:28.597Z,77.20
2023-03-06T16:46:28.753Z,77.41
2023-03-06T16:47:28.739Z,77.20
2023-03-06T16:48:28.633Z,77.51
2023-03-06T16:49:28.645Z,77.55
2023-03-06T16:50:28.540Z,77.83
2023-03-06T16:51:28.535Z,78.17
2023-03-06T16:52:28.588Z,78.28
2023-03-06T16:53:28.515Z,78.59
2023-03-06T16:54:28.499Z,78.69
2023-03-06T16:55:28.524Z,78.91
2023-03-06T16:56:28.469Z,78.69
2023-03-06T16:57:28.504Z,78.91
2023-03-06T16:58:28.476Z,79.22
2023-03-06T16:59:28.452Z,79.32
2023-03-06T17:00:30.108Z,79.53
2023-03-06T17:01:28.434Z,79.84
2023-03-06T17:02:28.471Z,80.05
2023-03-06T17:03:28.427Z,80.40
2023-03-06T17:04:28.396Z,80.51
2023-03-06T17:05:28.382Z,80.71
2023-03-06T17:06:28.374Z,80.92
2023-03-06T17:07:28.357Z,81.23
2023-03-06T17:08:28.358Z,81.02
2023-03-06T17:09:28.434Z,81.20
2023-03-06T17:10:28.332Z,81.45
2023-03-06T17:11:28.332Z,81.34
2023-03-06T17:12:28.342Z,81.23
2023-03-06T17:13:28.311Z,81.55
2023-03-06T17:14:28.279Z,81.55
2023-03-06T17:15:28.283Z,81.86
2023-03-06T17:16:28.312Z,82.28
2023-03-06T17:17:28.253Z,82.70
2023-03-06T17:18:28.273Z,83.57
2023-03-06T17:19:28.312Z,83.98
2023-03-06T17:20:28.278Z,84.50
2023-03-06T17:21:28.249Z,85.03
2023-03-06T17:22:28.258Z,85.44
2023-03-06T17:23:28.255Z,85.69
2023-03-06T17:24:28.290Z,86.00
2023-03-06T17:25:28.348Z,86.21
2023-03-06T17:26:28.187Z,86.84
2023-03-06T17:27:28.231Z,87.37
2023-03-06T17:28:28.262Z,87.68
2023-03-06T17:29:28.188Z,87.99
2023-03-06T17:30:28.193Z,88.30
2023-03-06T17:31:28.270Z,88.65
2023-03-06T17:32:28.216Z,88.97
2023-03-06T17:33:28.231Z,89.18
2023-03-06T17:34:28.161Z,89.18
2023-03-06T17:35:28.242Z,89.49
2023-03-06T17:36:28.118Z,89.70
2023-03-06T17:37:28.152Z,89.81
2023-03-06T17:38:28.142Z,89.91
2023-03-06T17:39:28.094Z,90.22
2023-03-06T17:40:28.080Z,90.37
2023-03-06T17:41:28.127Z,90.68
2023-03-06T17:42:28.082Z,90.68
2023-03-06T17:43:28.101Z,90.68
2023-03-06T17:44:28.024Z,90.78
2023-03-06T17:45:28.051Z,90.78
2023-03-06T17:46:28.059Z,90.78
2023-03-06T17:47:28.051Z,90.89
2023-03-06T17:48:27.995Z,91.00
2023-03-06T17:49:27.994Z,90.89
2023-03-06T17:50:27.992Z,91.20
2023-03-06T17:51:27.993Z,91.35
2023-03-06T17:52:27.938Z,91.66